sensor_id;sensor_type;location;lat;lon;timestamp;P1;durP1;ratioP1;P2;durP2;ratioP2
74503;SDS011;62988;55.776;37.544;2023-11-19T00:00:47;12.83;;;4.30;;
74503;SDS011;62988;55.776;37.544;2023-11-19T00:03:12;14.47;;;5.23;;
74503;SDS011;62988;55.776;37.544;2023-11-19T00:05:38;22.73;;;5.03;;
74503;SDS011;62988;55.776;37.544;2023-11-19T00:08:04;11.60;;;4.85;;
74503;SDS011;62988;55.776;37.544;2023-11-19T00:10:31;11.13;;;4.65;;
74503;SDS011;62988;55.776;37.544;2023-11-19T00:12:56;13.90;;;4.72;;
74503;SDS011;62988;55.776;37.544;2023-11-19T00:15:22;9.50;;;5.18;;
74503;SDS011;62988;55.776;37.544;2023-11-19T00:17:49;12.20;;;5.35;;
74503;SDS011;62988;55.776;37.544;2023-11-19T00:20:15;13.68;;;6.18;;
74503;SDS011;62988;55.776;37.544;2023-11-19T00:22:41;12.38;;;4.47;;
74503;SDS011;62988;55.776;37.544;2023-11-19T00:25:07;13.10;;;4.47;;
74503;SDS011;62988;55.776;37.544;2023-11-19T00:27:33;11.95;;;5.03;;
74503;SDS011;62988;55.776;37.544;2023-11-19T00:29:58;10.67;;;4.30;;
74503;SDS011;62988;55.776;37.544;2023-11-19T00:32:23;13.90;;;4.50;;
74503;SDS011;62988;55.776;37.544;2023-11-19T00:34:49;14.50;;;5.03;;
74503;SDS011;62988;55.776;37.544;2023-11-19T00:37:14;11.48;;;5.00;;
74503;SDS011;62988;55.776;37.544;2023-11-19T00:39:43;17.38;;;5.10;;
74503;SDS011;62988;55.776;37.544;2023-11-19T00:42:11;11.02;;;4.30;;
74503;SDS011;62988;55.776;37.544;2023-11-19T00:44:36;16.30;;;5.25;;
74503;SDS011;62988;55.776;37.544;2023-11-19T00:47:02;16.90;;;4.77;;
74503;SDS011;62988;55.776;37.544;2023-11-19T00:49:27;14.55;;;4.78;;
74503;SDS011;62988;55.776;37.544;2023-11-19T00:51:53;14.67;;;4.80;;
74503;SDS011;62988;55.776;37.544;2023-11-19T00:54:18;18.98;;;4.78;;
74503;SDS011;62988;55.776;37.544;2023-11-19T00:56:43;16.97;;;5.20;;
74503;SDS011;62988;55.776;37.544;2023-11-19T00:59:09;13.93;;;4.72;;
74503;SDS011;62988;55.776;37.544;2023-11-19T01:01:35;14.35;;;5.40;;
74503;SDS011;62988;55.776;37.544;2023-11-19T01:04:01;12.40;;;4.43;;
74503;SDS011;62988;55.776;37.544;2023-11-19T01:06:27;15.63;;;5.17;;
74503;SDS011;62988;55.776;37.544;2023-11-19T01:08:52;15.73;;;4.90;;
74503;SDS011;62988;55.776;37.544;2023-11-19T01:11:21;14.88;;;4.65;;
74503;SDS011;62988;55.776;37.544;2023-11-19T01:13:47;11.98;;;4.43;;
74503;SDS011;62988;55.776;37.544;2023-11-19T01:16:12;13.27;;;5.57;;
74503;SDS011;62988;55.776;37.544;2023-11-19T01:18:38;15.43;;;5.10;;
74503;SDS011;62988;55.776;37.544;2023-11-19T01:21:04;15.35;;;5.57;;
74503;SDS011;62988;55.776;37.544;2023-11-19T01:23:29;23.83;;;6.10;;
74503;SDS011;62988;55.776;37.544;2023-11-19T01:25:54;14.23;;;4.83;;
74503;SDS011;62988;55.776;37.544;2023-11-19T01:28:20;15.33;;;6.77;;
74503;SDS011;62988;55.776;37.544;2023-11-19T01:30:45;14.70;;;5.00;;
74503;SDS011;62988;55.776;37.544;2023-11-19T01:33:10;14.60;;;4.63;;
74503;SDS011;62988;55.776;37.544;2023-11-19T01:35:36;11.40;;;4.93;;
74503;SDS011;62988;55.776;37.544;2023-11-19T01:38:01;13.57;;;5.63;;
74503;SDS011;62988;55.776;37.544;2023-11-19T01:40:26;12.17;;;4.73;;
74503;SDS011;62988;55.776;37.544;2023-11-19T01:42:52;17.37;;;5.10;;
74503;SDS011;62988;55.776;37.544;2023-11-19T01:45:35;12.83;;;4.70;;
74503;SDS011;62988;55.776;37.544;2023-11-19T01:48:02;13.40;;;4.88;;
74503;SDS011;62988;55.776;37.544;2023-11-19T01:50:29;12.57;;;4.97;;
74503;SDS011;62988;55.776;37.544;2023-11-19T01:52:55;18.10;;;7.03;;
74503;SDS011;62988;55.776;37.544;2023-11-19T01:55:25;9.00;;;3.53;;
74503;SDS011;62988;55.776;37.544;2023-11-19T01:57:53;13.73;;;4.35;;
74503;SDS011;62988;55.776;37.544;2023-11-19T02:00:20;15.35;;;4.85;;
74503;SDS011;62988;55.776;37.544;2023-11-19T02:02:46;13.55;;;4.88;;
74503;SDS011;62988;55.776;37.544;2023-11-19T02:05:11;9.98;;;4.63;;
74503;SDS011;62988;55.776;37.544;2023-11-19T02:07:38;12.98;;;4.47;;
74503;SDS011;62988;55.776;37.544;2023-11-19T02:10:03;12.45;;;5.32;;
74503;SDS011;62988;55.776;37.544;2023-11-19T02:12:30;20.20;;;4.68;;
74503;SDS011;62988;55.776;37.544;2023-11-19T02:14:59;13.20;;;5.65;;
74503;SDS011;62988;55.776;37.544;2023-11-19T02:17:28;11.88;;;4.55;;
74503;SDS011;62988;55.776;37.544;2023-11-19T02:19:54;17.92;;;4.85;;
74503;SDS011;62988;55.776;37.544;2023-11-19T02:22:19;16.38;;;5.18;;
74503;SDS011;62988;55.776;37.544;2023-11-19T02:24:45;12.25;;;5.05;;
74503;SDS011;62988;55.776;37.544;2023-11-19T02:27:15;12.32;;;4.90;;
74503;SDS011;62988;55.776;37.544;2023-11-19T02:29:41;14.10;;;5.13;;
74503;SDS011;62988;55.776;37.544;2023-11-19T02:32:07;12.63;;;4.88;;
74503;SDS011;62988;55.776;37.544;2023-11-19T02:34:34;13.88;;;5.13;;
74503;SDS011;62988;55.776;37.544;2023-11-19T02:36:59;13.30;;;5.45;;
74503;SDS011;62988;55.776;37.544;2023-11-19T02:39:25;13.63;;;5.57;;
74503;SDS011;62988;55.776;37.544;2023-11-19T02:41:51;27.88;;;8.23;;
74503;SDS011;62988;55.776;37.544;2023-11-19T02:44:18;23.38;;;6.95;;
74503;SDS011;62988;55.776;37.544;2023-11-19T02:46:43;28.07;;;7.10;;
74503;SDS011;62988;55.776;37.544;2023-11-19T02:49:08;19.27;;;7.20;;
74503;SDS011;62988;55.776;37.544;2023-11-19T02:51:34;22.75;;;7.80;;
74503;SDS011;62988;55.776;37.544;2023-11-19T02:54:03;22.17;;;6.97;;
74503;SDS011;62988;55.776;37.544;2023-11-19T02:56:28;21.73;;;6.23;;
74503;SDS011;62988;55.776;37.544;2023-11-19T02:58:59;23.02;;;7.00;;
74503;SDS011;62988;55.776;37.544;2023-11-19T03:01:24;21.73;;;8.10;;
74503;SDS011;62988;55.776;37.544;2023-11-19T03:03:57;23.63;;;9.18;;
74503;SDS011;62988;55.776;37.544;2023-11-19T03:06:23;30.17;;;10.95;;
74503;SDS011;62988;55.776;37.544;2023-11-19T03:08:48;23.55;;;8.32;;
74503;SDS011;62988;55.776;37.544;2023-11-19T03:11:14;21.63;;;7.07;;
74503;SDS011;62988;55.776;37.544;2023-11-19T03:13:39;26.60;;;7.28;;
74503;SDS011;62988;55.776;37.544;2023-11-19T03:16:05;27.15;;;9.48;;
74503;SDS011;62988;55.776;37.544;2023-11-19T03:18:30;20.50;;;7.22;;
74503;SDS011;62988;55.776;37.544;2023-11-19T03:20:56;27.05;;;7.65;;
74503;SDS011;62988;55.776;37.544;2023-11-19T03:23:24;17.33;;;6.38;;
74503;SDS011;62988;55.776;37.544;2023-11-19T03:25:50;21.80;;;8.38;;
74503;SDS011;62988;55.776;37.544;2023-11-19T03:28:15;29.45;;;7.55;;
74503;SDS011;62988;55.776;37.544;2023-11-19T03:30:40;25.70;;;8.20;;
74503;SDS011;62988;55.776;37.544;2023-11-19T03:33:06;26.08;;;8.32;;
74503;SDS011;62988;55.776;37.544;2023-11-19T03:35:31;23.90;;;7.80;;
74503;SDS011;62988;55.776;37.544;2023-11-19T03:37:58;17.67;;;7.45;;
74503;SDS011;62988;55.776;37.544;2023-11-19T03:40:23;16.10;;;6.93;;
74503;SDS011;62988;55.776;37.544;2023-11-19T03:42:50;25.40;;;7.82;;
74503;SDS011;62988;55.776;37.544;2023-11-19T03:45:15;20.23;;;7.93;;
74503;SDS011;62988;55.776;37.544;2023-11-19T03:47:41;25.90;;;6.28;;
74503;SDS011;62988;55.776;37.544;2023-11-19T03:50:06;24.52;;;7.35;;
74503;SDS011;62988;55.776;37.544;2023-11-19T03:52:33;20.23;;;6.60;;
74503;SDS011;62988;55.776;37.544;2023-11-19T03:54:58;15.52;;;6.32;;
74503;SDS011;62988;55.776;37.544;2023-11-19T03:57:24;21.73;;;6.33;;
74503;SDS011;62988;55.776;37.544;2023-11-19T03:59:49;16.63;;;6.60;;
74503;SDS011;62988;55.776;37.544;2023-11-19T04:02:15;18.92;;;7.30;;
74503;SDS011;62988;55.776;37.544;2023-11-19T04:04:40;16.80;;;6.68;;
74503;SDS011;62988;55.776;37.544;2023-11-19T04:07:05;18.67;;;6.23;;
74503;SDS011;62988;55.776;37.544;2023-11-19T04:09:31;16.08;;;6.95;;
74503;SDS011;62988;55.776;37.544;2023-11-19T04:11:58;18.65;;;6.32;;
74503;SDS011;62988;55.776;37.544;2023-11-19T04:14:23;15.85;;;6.35;;
74503;SDS011;62988;55.776;37.544;2023-11-19T04:16:49;19.23;;;6.43;;
74503;SDS011;62988;55.776;37.544;2023-11-19T04:19:14;18.65;;;6.47;;
74503;SDS011;62988;55.776;37.544;2023-11-19T04:21:40;19.57;;;6.77;;
74503;SDS011;62988;55.776;37.544;2023-11-19T04:24:06;21.30;;;7.90;;
74503;SDS011;62988;55.776;37.544;2023-11-19T04:26:32;19.15;;;6.80;;
74503;SDS011;62988;55.776;37.544;2023-11-19T04:28:57;19.50;;;6.97;;
74503;SDS011;62988;55.776;37.544;2023-11-19T04:31:23;25.15;;;7.15;;
74503;SDS011;62988;55.776;37.544;2023-11-19T04:36:19;21.00;;;7.43;;
74503;SDS011;62988;55.776;37.544;2023-11-19T04:38:45;19.48;;;7.45;;
74503;SDS011;62988;55.776;37.544;2023-11-19T04:41:11;12.80;;;6.63;;
74503;SDS011;62988;55.776;37.544;2023-11-19T04:43:36;22.43;;;6.40;;
74503;SDS011;62988;55.776;37.544;2023-11-19T04:46:03;13.60;;;6.13;;
74503;SDS011;62988;55.776;37.544;2023-11-19T04:48:28;18.15;;;6.47;;
74503;SDS011;62988;55.776;37.544;2023-11-19T04:50:54;15.85;;;5.47;;
74503;SDS011;62988;55.776;37.544;2023-11-19T04:53:19;15.07;;;5.50;;
74503;SDS011;62988;55.776;37.544;2023-11-19T04:55:45;11.93;;;5.45;;
74503;SDS011;62988;55.776;37.544;2023-11-19T04:58:10;12.30;;;5.03;;
74503;SDS011;62988;55.776;37.544;2023-11-19T05:00:35;14.00;;;5.50;;
74503;SDS011;62988;55.776;37.544;2023-11-19T05:03:01;18.25;;;6.45;;
74503;SDS011;62988;55.776;37.544;2023-11-19T05:05:26;14.57;;;4.82;;
74503;SDS011;62988;55.776;37.544;2023-11-19T05:07:52;13.02;;;5.63;;
74503;SDS011;62988;55.776;37.544;2023-11-19T05:10:17;14.37;;;5.63;;
74503;SDS011;62988;55.776;37.544;2023-11-19T05:12:42;15.97;;;5.43;;
74503;SDS011;62988;55.776;37.544;2023-11-19T05:15:08;10.20;;;5.63;;
74503;SDS011;62988;55.776;37.544;2023-11-19T05:17:33;11.52;;;5.15;;
74503;SDS011;62988;55.776;37.544;2023-11-19T05:19:59;16.57;;;5.03;;
74503;SDS011;62988;55.776;37.544;2023-11-19T05:22:24;12.40;;;4.60;;
74503;SDS011;62988;55.776;37.544;2023-11-19T05:24:51;10.68;;;4.82;;
74503;SDS011;62988;55.776;37.544;2023-11-19T05:27:16;11.75;;;4.55;;
74503;SDS011;62988;55.776;37.544;2023-11-19T05:29:42;11.93;;;4.97;;
74503;SDS011;62988;55.776;37.544;2023-11-19T05:32:08;17.02;;;5.85;;
74503;SDS011;62988;55.776;37.544;2023-11-19T05:34:34;17.90;;;5.63;;
74503;SDS011;62988;55.776;37.544;2023-11-19T05:36:59;11.77;;;5.63;;
74503;SDS011;62988;55.776;37.544;2023-11-19T05:39:25;12.00;;;4.75;;
74503;SDS011;62988;55.776;37.544;2023-11-19T05:41:50;11.70;;;5.53;;
74503;SDS011;62988;55.776;37.544;2023-11-19T05:44:16;15.57;;;5.27;;
74503;SDS011;62988;55.776;37.544;2023-11-19T05:46:42;11.95;;;5.05;;
74503;SDS011;62988;55.776;37.544;2023-11-19T05:49:11;16.75;;;5.75;;
74503;SDS011;62988;55.776;37.544;2023-11-19T05:51:39;15.40;;;5.20;;
74503;SDS011;62988;55.776;37.544;2023-11-19T05:54:08;13.18;;;5.70;;
74503;SDS011;62988;55.776;37.544;2023-11-19T05:56:34;20.75;;;5.88;;
74503;SDS011;62988;55.776;37.544;2023-11-19T05:59:00;12.55;;;5.93;;
74503;SDS011;62988;55.776;37.544;2023-11-19T06:01:28;13.85;;;6.05;;
74503;SDS011;62988;55.776;37.544;2023-11-19T06:03:54;18.52;;;6.35;;
74503;SDS011;62988;55.776;37.544;2023-11-19T06:06:19;19.48;;;6.72;;
74503;SDS011;62988;55.776;37.544;2023-11-19T06:08:45;20.07;;;6.63;;
74503;SDS011;62988;55.776;37.544;2023-11-19T06:11:11;17.35;;;5.40;;
74503;SDS011;62988;55.776;37.544;2023-11-19T06:13:43;19.58;;;6.68;;
74503;SDS011;62988;55.776;37.544;2023-11-19T06:16:08;17.13;;;5.95;;
74503;SDS011;62988;55.776;37.544;2023-11-19T06:18:34;18.37;;;6.70;;
74503;SDS011;62988;55.776;37.544;2023-11-19T06:20:59;21.93;;;7.23;;
74503;SDS011;62988;55.776;37.544;2023-11-19T06:23:24;14.50;;;6.40;;
74503;SDS011;62988;55.776;37.544;2023-11-19T06:25:50;16.07;;;5.47;;
74503;SDS011;62988;55.776;37.544;2023-11-19T06:28:15;19.40;;;5.80;;
74503;SDS011;62988;55.776;37.544;2023-11-19T06:30:40;12.82;;;6.18;;
74503;SDS011;62988;55.776;37.544;2023-11-19T06:33:06;17.08;;;5.15;;
74503;SDS011;62988;55.776;37.544;2023-11-19T06:35:32;13.85;;;6.50;;
74503;SDS011;62988;55.776;37.544;2023-11-19T06:38:04;20.20;;;7.47;;
74503;SDS011;62988;55.776;37.544;2023-11-19T06:40:30;22.75;;;6.72;;
74503;SDS011;62988;55.776;37.544;2023-11-19T06:42:55;14.18;;;6.70;;
74503;SDS011;62988;55.776;37.544;2023-11-19T06:45:21;15.07;;;6.35;;
74503;SDS011;62988;55.776;37.544;2023-11-19T06:47:46;16.20;;;6.57;;
74503;SDS011;62988;55.776;37.544;2023-11-19T06:50:12;14.57;;;6.82;;
74503;SDS011;62988;55.776;37.544;2023-11-19T06:52:37;15.63;;;6.73;;
74503;SDS011;62988;55.776;37.544;2023-11-19T06:55:03;17.08;;;6.68;;
74503;SDS011;62988;55.776;37.544;2023-11-19T06:57:28;16.27;;;6.68;;
74503;SDS011;62988;55.776;37.544;2023-11-19T06:59:54;15.43;;;6.38;;
74503;SDS011;62988;55.776;37.544;2023-11-19T07:02:20;22.98;;;6.90;;
74503;SDS011;62988;55.776;37.544;2023-11-19T07:04:45;15.10;;;6.47;;
74503;SDS011;62988;55.776;37.544;2023-11-19T07:07:10;16.53;;;6.50;;
74503;SDS011;62988;55.776;37.544;2023-11-19T07:09:36;16.23;;;6.70;;
74503;SDS011;62988;55.776;37.544;2023-11-19T07:12:02;19.80;;;7.60;;
74503;SDS011;62988;55.776;37.544;2023-11-19T07:14:29;20.05;;;7.47;;
74503;SDS011;62988;55.776;37.544;2023-11-19T07:16:55;14.83;;;7.33;;
74503;SDS011;62988;55.776;37.544;2023-11-19T07:19:21;19.20;;;7.18;;
74503;SDS011;62988;55.776;37.544;2023-11-19T07:21:46;13.82;;;6.50;;
74503;SDS011;62988;55.776;37.544;2023-11-19T07:24:11;18.85;;;7.28;;
74503;SDS011;62988;55.776;37.544;2023-11-19T07:26:46;18.90;;;7.15;;
74503;SDS011;62988;55.776;37.544;2023-11-19T07:29:12;18.52;;;7.93;;
74503;SDS011;62988;55.776;37.544;2023-11-19T07:31:38;19.38;;;6.93;;
74503;SDS011;62988;55.776;37.544;2023-11-19T07:34:03;20.73;;;6.97;;
74503;SDS011;62988;55.776;37.544;2023-11-19T07:36:30;16.00;;;6.25;;
74503;SDS011;62988;55.776;37.544;2023-11-19T07:38:56;17.58;;;6.60;;
74503;SDS011;62988;55.776;37.544;2023-11-19T07:41:22;19.65;;;6.43;;
74503;SDS011;62988;55.776;37.544;2023-11-19T07:43:48;16.13;;;5.93;;
74503;SDS011;62988;55.776;37.544;2023-11-19T07:46:14;19.60;;;6.97;;
74503;SDS011;62988;55.776;37.544;2023-11-19T07:48:40;18.35;;;7.47;;
74503;SDS011;62988;55.776;37.544;2023-11-19T07:51:05;20.48;;;5.93;;
74503;SDS011;62988;55.776;37.544;2023-11-19T07:53:31;24.02;;;7.15;;
74503;SDS011;62988;55.776;37.544;2023-11-19T07:55:57;18.52;;;6.32;;
74503;SDS011;62988;55.776;37.544;2023-11-19T07:58:24;20.60;;;8.05;;
74503;SDS011;62988;55.776;37.544;2023-11-19T08:00:50;14.73;;;7.00;;
74503;SDS011;62988;55.776;37.544;2023-11-19T08:03:15;20.60;;;7.53;;
74503;SDS011;62988;55.776;37.544;2023-11-19T08:05:41;23.83;;;8.20;;
74503;SDS011;62988;55.776;37.544;2023-11-19T08:08:06;25.27;;;7.57;;
74503;SDS011;62988;55.776;37.544;2023-11-19T08:10:32;19.52;;;6.60;;
74503;SDS011;62988;55.776;37.544;2023-11-19T08:12:58;13.80;;;6.32;;
74503;SDS011;62988;55.776;37.544;2023-11-19T08:15:23;21.23;;;7.95;;
74503;SDS011;62988;55.776;37.544;2023-11-19T08:17:49;25.43;;;8.37;;
74503;SDS011;62988;55.776;37.544;2023-11-19T08:20:14;18.33;;;8.15;;
74503;SDS011;62988;55.776;37.544;2023-11-19T08:22:40;15.07;;;7.30;;
74503;SDS011;62988;55.776;37.544;2023-11-19T08:25:05;15.25;;;7.40;;
74503;SDS011;62988;55.776;37.544;2023-11-19T08:27:31;16.38;;;6.38;;
74503;SDS011;62988;55.776;37.544;2023-11-19T08:29:56;14.75;;;7.03;;
74503;SDS011;62988;55.776;37.544;2023-11-19T08:32:25;18.43;;;6.67;;
74503;SDS011;62988;55.776;37.544;2023-11-19T08:34:52;18.42;;;7.50;;
74503;SDS011;62988;55.776;37.544;2023-11-19T08:37:17;11.55;;;5.22;;
74503;SDS011;62988;55.776;37.544;2023-11-19T08:39:47;21.63;;;6.22;;
74503;SDS011;62988;55.776;37.544;2023-11-19T08:42:12;18.42;;;7.15;;
74503;SDS011;62988;55.776;37.544;2023-11-19T08:44:38;15.48;;;7.32;;
74503;SDS011;62988;55.776;37.544;2023-11-19T08:47:03;25.05;;;7.78;;
74503;SDS011;62988;55.776;37.544;2023-11-19T08:49:29;16.27;;;7.35;;
74503;SDS011;62988;55.776;37.544;2023-11-19T08:51:54;17.53;;;7.33;;
74503;SDS011;62988;55.776;37.544;2023-11-19T08:54:20;19.30;;;7.63;;
74503;SDS011;62988;55.776;37.544;2023-11-19T08:56:46;18.92;;;7.32;;
74503;SDS011;62988;55.776;37.544;2023-11-19T08:59:12;15.45;;;6.60;;
74503;SDS011;62988;55.776;37.544;2023-11-19T09:01:37;15.40;;;6.88;;
74503;SDS011;62988;55.776;37.544;2023-11-19T09:04:02;13.67;;;6.33;;
74503;SDS011;62988;55.776;37.544;2023-11-19T09:06:28;18.42;;;7.22;;
74503;SDS011;62988;55.776;37.544;2023-11-19T09:08:53;19.77;;;7.27;;
74503;SDS011;62988;55.776;37.544;2023-11-19T09:11:18;21.20;;;8.25;;
74503;SDS011;62988;55.776;37.544;2023-11-19T09:13:44;16.87;;;6.70;;
74503;SDS011;62988;55.776;37.544;2023-11-19T09:16:11;20.00;;;7.45;;
74503;SDS011;62988;55.776;37.544;2023-11-19T09:18:37;16.85;;;6.40;;
74503;SDS011;62988;55.776;37.544;2023-11-19T09:21:02;15.93;;;7.40;;
74503;SDS011;62988;55.776;37.544;2023-11-19T09:23:28;15.40;;;7.07;;
74503;SDS011;62988;55.776;37.544;2023-11-19T09:25:55;20.52;;;7.75;;
74503;SDS011;62988;55.776;37.544;2023-11-19T09:28:21;17.63;;;7.05;;
74503;SDS011;62988;55.776;37.544;2023-11-19T09:30:46;15.43;;;6.82;;
74503;SDS011;62988;55.776;37.544;2023-11-19T09:33:12;14.07;;;6.00;;
74503;SDS011;62988;55.776;37.544;2023-11-19T09:35:37;23.33;;;7.87;;
74503;SDS011;62988;55.776;37.544;2023-11-19T09:38:02;16.60;;;7.73;;
74503;SDS011;62988;55.776;37.544;2023-11-19T09:40:30;17.75;;;6.93;;
74503;SDS011;62988;55.776;37.544;2023-11-19T09:42:56;14.77;;;7.35;;
74503;SDS011;62988;55.776;37.544;2023-11-19T09:45:22;17.70;;;7.43;;
74503;SDS011;62988;55.776;37.544;2023-11-19T09:47:50;16.88;;;7.75;;
74503;SDS011;62988;55.776;37.544;2023-11-19T09:50:18;22.25;;;8.18;;
74503;SDS011;62988;55.776;37.544;2023-11-19T09:52:44;15.00;;;7.70;;
74503;SDS011;62988;55.776;37.544;2023-11-19T09:55:09;17.25;;;5.78;;
74503;SDS011;62988;55.776;37.544;2023-11-19T09:57:34;17.47;;;7.27;;
74503;SDS011;62988;55.776;37.544;2023-11-19T10:00:02;19.13;;;7.82;;
74503;SDS011;62988;55.776;37.544;2023-11-19T10:02:30;16.75;;;7.25;;
74503;SDS011;62988;55.776;37.544;2023-11-19T10:04:56;13.60;;;6.00;;
74503;SDS011;62988;55.776;37.544;2023-11-19T10:07:22;12.88;;;5.90;;
74503;SDS011;62988;55.776;37.544;2023-11-19T10:09:48;17.77;;;8.25;;
74503;SDS011;62988;55.776;37.544;2023-11-19T10:12:13;14.57;;;6.53;;
74503;SDS011;62988;55.776;37.544;2023-11-19T10:14:38;13.73;;;6.27;;
74503;SDS011;62988;55.776;37.544;2023-11-19T10:17:07;11.88;;;5.80;;
74503;SDS011;62988;55.776;37.544;2023-11-19T10:19:32;18.23;;;6.30;;
74503;SDS011;62988;55.776;37.544;2023-11-19T10:22:02;14.38;;;6.30;;
74503;SDS011;62988;55.776;37.544;2023-11-19T10:24:31;11.73;;;4.47;;
74503;SDS011;62988;55.776;37.544;2023-11-19T10:26:57;12.70;;;5.45;;
74503;SDS011;62988;55.776;37.544;2023-11-19T10:29:23;15.10;;;6.07;;
74503;SDS011;62988;55.776;37.544;2023-11-19T10:31:57;14.23;;;5.47;;
74503;SDS011;62988;55.776;37.544;2023-11-19T10:34:26;17.92;;;5.70;;
74503;SDS011;62988;55.776;37.544;2023-11-19T10:36:54;13.18;;;5.68;;
74503;SDS011;62988;55.776;37.544;2023-11-19T10:39:20;13.75;;;5.65;;
74503;SDS011;62988;55.776;37.544;2023-11-19T10:41:46;16.85;;;6.93;;
74503;SDS011;62988;55.776;37.544;2023-11-19T10:44:12;13.63;;;6.22;;
74503;SDS011;62988;55.776;37.544;2023-11-19T10:46:38;16.27;;;6.47;;
74503;SDS011;62988;55.776;37.544;2023-11-19T10:49:04;14.88;;;5.55;;
74503;SDS011;62988;55.776;37.544;2023-11-19T10:51:31;16.90;;;6.63;;
74503;SDS011;62988;55.776;37.544;2023-11-19T10:53:57;18.75;;;5.55;;
74503;SDS011;62988;55.776;37.544;2023-11-19T10:56:25;15.75;;;6.88;;
74503;SDS011;62988;55.776;37.544;2023-11-19T10:58:53;19.67;;;5.63;;
74503;SDS011;62988;55.776;37.544;2023-11-19T11:01:20;13.90;;;6.00;;
74503;SDS011;62988;55.776;37.544;2023-11-19T11:03:48;17.40;;;5.50;;
74503;SDS011;62988;55.776;37.544;2023-11-19T11:06:16;16.50;;;6.47;;
74503;SDS011;62988;55.776;37.544;2023-11-19T11:08:42;14.52;;;5.78;;
74503;SDS011;62988;55.776;37.544;2023-11-19T11:11:08;14.85;;;6.60;;
74503;SDS011;62988;55.776;37.544;2023-11-19T11:13:35;14.68;;;6.47;;
74503;SDS011;62988;55.776;37.544;2023-11-19T11:16:02;15.90;;;6.88;;
74503;SDS011;62988;55.776;37.544;2023-11-19T11:18:29;12.18;;;5.60;;
74503;SDS011;62988;55.776;37.544;2023-11-19T11:20:58;18.47;;;6.90;;
74503;SDS011;62988;55.776;37.544;2023-11-19T11:28:58;17.45;;;6.88;;
74503;SDS011;62988;55.776;37.544;2023-11-19T11:31:45;18.08;;;6.63;;
74503;SDS011;62988;55.776;37.544;2023-11-19T11:36:44;18.63;;;7.70;;
74503;SDS011;62988;55.776;37.544;2023-11-19T11:39:13;16.58;;;7.05;;
74503;SDS011;62988;55.776;37.544;2023-11-19T11:41:40;14.88;;;6.88;;
74503;SDS011;62988;55.776;37.544;2023-11-19T11:44:05;16.27;;;6.77;;
74503;SDS011;62988;55.776;37.544;2023-11-19T11:49:03;14.00;;;5.78;;
74503;SDS011;62988;55.776;37.544;2023-11-19T11:57:04;14.93;;;5.95;;
74503;SDS011;62988;55.776;37.544;2023-11-19T11:59:36;9.85;;;5.22;;
74503;SDS011;62988;55.776;37.544;2023-11-19T12:02:02;14.32;;;5.80;;
74503;SDS011;62988;55.776;37.544;2023-11-19T12:04:28;19.58;;;6.80;;
74503;SDS011;62988;55.776;37.544;2023-11-19T12:09:49;21.77;;;5.60;;
74503;SDS011;62988;55.776;37.544;2023-11-19T12:19:58;14.90;;;5.78;;
74503;SDS011;62988;55.776;37.544;2023-11-19T12:22:24;14.52;;;5.50;;
74503;SDS011;62988;55.776;37.544;2023-11-19T12:24:50;23.50;;;6.60;;
74503;SDS011;62988;55.776;37.544;2023-11-19T12:27:16;14.25;;;5.93;;
74503;SDS011;62988;55.776;37.544;2023-11-19T12:29:43;13.65;;;5.97;;
74503;SDS011;62988;55.776;37.544;2023-11-19T12:32:11;14.65;;;5.93;;
74503;SDS011;62988;55.776;37.544;2023-11-19T12:34:36;14.60;;;6.07;;
74503;SDS011;62988;55.776;37.544;2023-11-19T12:37:05;13.87;;;6.10;;
74503;SDS011;62988;55.776;37.544;2023-11-19T12:39:30;23.52;;;5.72;;
74503;SDS011;62988;55.776;37.544;2023-11-19T12:41:56;16.02;;;6.07;;
74503;SDS011;62988;55.776;37.544;2023-11-19T12:44:24;14.77;;;5.18;;
74503;SDS011;62988;55.776;37.544;2023-11-19T12:47:05;13.95;;;5.22;;
74503;SDS011;62988;55.776;37.544;2023-11-19T12:49:32;12.10;;;5.47;;
74503;SDS011;62988;55.776;37.544;2023-11-19T12:51:57;19.52;;;6.68;;
74503;SDS011;62988;55.776;37.544;2023-11-19T12:54:32;10.32;;;4.25;;
74503;SDS011;62988;55.776;37.544;2023-11-19T12:56:58;12.07;;;4.93;;
74503;SDS011;62988;55.776;37.544;2023-11-19T12:59:24;11.35;;;4.57;;
74503;SDS011;62988;55.776;37.544;2023-11-19T13:01:59;13.10;;;5.50;;
74503;SDS011;62988;55.776;37.544;2023-11-19T13:04:28;9.88;;;3.78;;
74503;SDS011;62988;55.776;37.544;2023-11-19T13:06:55;15.40;;;5.13;;
74503;SDS011;62988;55.776;37.544;2023-11-19T13:09:24;12.32;;;5.15;;
74503;SDS011;62988;55.776;37.544;2023-11-19T13:11:50;11.88;;;4.65;;
74503;SDS011;62988;55.776;37.544;2023-11-19T13:14:16;12.70;;;5.22;;
74503;SDS011;62988;55.776;37.544;2023-11-19T13:16:41;9.95;;;4.85;;
74503;SDS011;62988;55.776;37.544;2023-11-19T13:19:07;12.98;;;5.53;;
74503;SDS011;62988;55.776;37.544;2023-11-19T13:21:33;11.25;;;4.47;;
74503;SDS011;62988;55.776;37.544;2023-11-19T13:23:59;13.10;;;5.60;;
74503;SDS011;62988;55.776;37.544;2023-11-19T13:26:24;16.53;;;5.57;;
74503;SDS011;62988;55.776;37.544;2023-11-19T13:28:50;17.63;;;5.50;;
74503;SDS011;62988;55.776;37.544;2023-11-19T13:31:15;16.00;;;5.63;;
74503;SDS011;62988;55.776;37.544;2023-11-19T13:33:41;15.32;;;5.88;;
74503;SDS011;62988;55.776;37.544;2023-11-19T13:36:06;11.88;;;4.45;;
74503;SDS011;62988;55.776;37.544;2023-11-19T13:38:36;12.82;;;4.97;;
74503;SDS011;62988;55.776;37.544;2023-11-19T13:41:02;19.42;;;5.72;;
74503;SDS011;62988;55.776;37.544;2023-11-19T13:43:27;15.65;;;5.90;;
74503;SDS011;62988;55.776;37.544;2023-11-19T13:45:53;17.40;;;5.30;;
74503;SDS011;62988;55.776;37.544;2023-11-19T13:48:19;14.40;;;5.13;;
74503;SDS011;62988;55.776;37.544;2023-11-19T13:50:44;13.32;;;5.32;;
74503;SDS011;62988;55.776;37.544;2023-11-19T13:53:10;15.00;;;5.68;;
74503;SDS011;62988;55.776;37.544;2023-11-19T13:55:35;13.63;;;5.68;;
74503;SDS011;62988;55.776;37.544;2023-11-19T13:58:01;13.07;;;6.15;;
74503;SDS011;62988;55.776;37.544;2023-11-19T14:00:26;15.43;;;6.57;;
74503;SDS011;62988;55.776;37.544;2023-11-19T14:02:51;17.77;;;6.40;;
74503;SDS011;62988;55.776;37.544;2023-11-19T14:05:17;16.67;;;6.83;;
74503;SDS011;62988;55.776;37.544;2023-11-19T14:07:43;12.13;;;6.30;;
74503;SDS011;62988;55.776;37.544;2023-11-19T14:10:09;12.52;;;5.13;;
74503;SDS011;62988;55.776;37.544;2023-11-19T14:12:36;16.88;;;6.78;;
74503;SDS011;62988;55.776;37.544;2023-11-19T14:15:02;19.20;;;6.97;;
74503;SDS011;62988;55.776;37.544;2023-11-19T14:17:30;13.05;;;7.00;;
74503;SDS011;62988;55.776;37.544;2023-11-19T14:19:56;15.35;;;6.13;;
74503;SDS011;62988;55.776;37.544;2023-11-19T14:22:21;13.23;;;4.93;;
74503;SDS011;62988;55.776;37.544;2023-11-19T14:24:47;14.00;;;6.15;;
74503;SDS011;62988;55.776;37.544;2023-11-19T14:27:12;13.90;;;5.38;;
74503;SDS011;62988;55.776;37.544;2023-11-19T14:29:37;15.52;;;6.00;;
74503;SDS011;62988;55.776;37.544;2023-11-19T14:32:03;13.30;;;6.28;;
74503;SDS011;62988;55.776;37.544;2023-11-19T14:34:29;19.58;;;6.80;;
74503;SDS011;62988;55.776;37.544;2023-11-19T14:36:55;14.07;;;6.03;;
74503;SDS011;62988;55.776;37.544;2023-11-19T14:39:20;15.25;;;6.28;;
74503;SDS011;62988;55.776;37.544;2023-11-19T14:41:45;14.57;;;6.07;;
74503;SDS011;62988;55.776;37.544;2023-11-19T14:44:11;11.97;;;5.50;;